createdAt,value
2022-09-30T00:00:56.325Z,5.55
2022-09-30T00:03:24.189Z,4.97
2022-09-30T00:06:07.657Z,4.95
2022-09-30T00:08:36.274Z,4.90
2022-09-30T00:11:05.854Z,5.00
2022-09-30T00:13:34.813Z,5.25
2022-09-30T00:16:02.434Z,5.07
2022-09-30T00:18:29.775Z,4.65
2022-09-30T00:20:56.578Z,5.13
2022-09-30T00:23:23.952Z,4.65
2022-09-30T00:25:50.655Z,4.65
2022-09-30T00:28:17.472Z,4.70
2022-09-30T00:30:43.993Z,4.78
2022-09-30T00:33:10.569Z,4.35
2022-09-30T00:35:37.941Z,4.55
2022-09-30T00:38:04.700Z,4.43
2022-09-30T00:40:31.771Z,4.75
2022-09-30T00:43:00.456Z,4.65
2022-09-30T00:45:29.295Z,4.32
2022-09-30T00:48:14.528Z,4.15
2022-09-30T00:50:47.184Z,4.78
2022-09-30T00:53:20.145Z,4.50
2022-09-30T00:56:05.018Z,5.03
2022-09-30T00:58:37.181Z,4.75
2022-09-30T01:01:04.590Z,4.63
2022-09-30T01:03:36.698Z,4.50
2022-09-30T01:06:03.424Z,4.57
2022-09-30T01:08:33.500Z,4.70
2022-09-30T01:11:03.409Z,4.53
2022-09-30T01:13:35.024Z,4.60
2022-09-30T01:16:07.829Z,4.50
2022-09-30T01:18:47.581Z,4.50
2022-09-30T01:21:46.728Z,4.70
2022-09-30T01:24:30.697Z,4.72
2022-09-30T01:27:15.918Z,4.40
2022-09-30T01:30:21.776Z,4.28
2022-09-30T01:33:07.809Z,4.40
2022-09-30T01:35:51.163Z,4.35
2022-09-30T01:38:31.065Z,4.50
2022-09-30T01:41:09.189Z,4.57
2022-09-30T01:44:13.300Z,4.40
2022-09-30T01:46:59.468Z,4.18
2022-09-30T01:49:38.875Z,4.10
2022-09-30T01:52:15.460Z,3.70
2022-09-30T01:55:06.260Z,4.22
2022-09-30T01:57:51.148Z,4.18
2022-09-30T02:00:18.063Z,4.00
2022-09-30T02:02:56.802Z,4.10
2022-09-30T02:05:50.852Z,4.20
2022-09-30T02:08:30.093Z,4.53
2022-09-30T02:11:27.747Z,4.35
2022-09-30T02:14:02.299Z,4.38
2022-09-30T02:16:39.916Z,4.38
2022-09-30T02:19:20.462Z,4.28
2022-09-30T02:21:58.457Z,3.90
2022-09-30T02:24:28.399Z,4.30
2022-09-30T02:26:58.214Z,3.90
2022-09-30T02:29:30.424Z,4.05
2022-09-30T02:32:03.300Z,3.90
2022-09-30T02:34:37.863Z,4.03
2022-09-30T02:37:19.346Z,3.83
2022-09-30T02:40:10.755Z,4.03
2022-09-30T02:42:39.032Z,3.67
2022-09-30T02:45:10.248Z,4.20
2022-09-30T02:48:28.760Z,3.88
2022-09-30T02:51:23.817Z,4.10
2022-09-30T02:54:17.897Z,4.07
2022-09-30T02:56:54.811Z,3.88
2022-09-30T02:59:23.599Z,4.20
2022-09-30T03:01:50.380Z,3.95
2022-09-30T03:04:23.083Z,3.85
2022-09-30T03:06:49.692Z,3.80
2022-09-30T03:09:16.339Z,4.43
2022-09-30T03:11:42.959Z,3.55
2022-09-30T03:14:38.606Z,3.90
2022-09-30T03:17:30.203Z,3.80
2022-09-30T03:20:27.706Z,3.95
2022-09-30T03:23:20.180Z,4.15
2022-09-30T03:26:10.518Z,4.10
2022-09-30T03:28:52.001Z,4.32
2022-09-30T03:31:24.324Z,4.63
2022-09-30T03:34:33.256Z,4.18
2022-09-30T03:37:17.022Z,3.90
2022-09-30T03:40:06.011Z,4.13
2022-09-30T03:42:47.800Z,4.38
2022-09-30T03:45:21.015Z,4.28
2022-09-30T03:47:52.036Z,3.95
2022-09-30T03:50:21.781Z,4.38
2022-09-30T03:52:49.761Z,3.80
2022-09-30T03:55:17.318Z,4.43
2022-09-30T03:57:44.703Z,4.43
2022-09-30T04:00:13.055Z,4.20
2022-09-30T04:02:39.643Z,4.35
2022-09-30T04:05:07.069Z,3.83
2022-09-30T04:07:34.056Z,4.38
2022-09-30T04:10:00.827Z,4.78
2022-09-30T04:12:27.410Z,4.60
2022-09-30T04:14:54.004Z,4.20
2022-09-30T04:17:20.684Z,4.07
2022-09-30T04:19:47.398Z,4.47
2022-09-30T04:22:13.972Z,4.15
2022-09-30T04:24:40.608Z,4.78
2022-09-30T04:27:07.176Z,4.30
2022-09-30T04:29:33.664Z,3.95
2022-09-30T04:32:00.372Z,3.97
2022-09-30T04:34:26.957Z,4.30
2022-09-30T04:36:53.784Z,4.90
2022-09-30T04:39:20.414Z,4.40
2022-09-30T04:41:47.120Z,5.15
2022-09-30T04:44:13.743Z,4.35
2022-09-30T04:46:40.593Z,4.28
2022-09-30T04:49:09.315Z,4.07
2022-09-30T04:51:36.763Z,4.82
2022-09-30T04:54:03.465Z,4.45
2022-09-30T04:56:30.093Z,4.78
2022-09-30T04:58:56.714Z,4.65
2022-09-30T05:01:23.421Z,4.53
2022-09-30T05:03:50.689Z,4.60
2022-09-30T05:06:17.490Z,4.78
2022-09-30T05:08:46.018Z,4.43
2022-09-30T05:11:18.764Z,4.78
2022-09-30T05:13:46.459Z,4.90
2022-09-30T05:16:14.193Z,4.78
2022-09-30T05:18:42.694Z,4.78
2022-09-30T05:21:10.216Z,4.65
2022-09-30T05:23:37.005Z,5.43
2022-09-30T05:26:05.768Z,4.80
2022-09-30T05:28:35.241Z,4.35
2022-09-30T05:31:06.204Z,4.57
2022-09-30T05:33:33.321Z,4.70
2022-09-30T05:36:02.284Z,4.43
2022-09-30T05:38:29.293Z,4.70
2022-09-30T05:40:55.815Z,4.97
2022-09-30T05:43:22.425Z,4.70
2022-09-30T05:45:56.604Z,4.82
2022-09-30T05:48:24.178Z,4.80
2022-09-30T05:50:58.431Z,4.15
2022-09-30T05:53:25.271Z,4.75
2022-09-30T05:55:52.139Z,5.65
2022-09-30T05:58:20.487Z,4.72
2022-09-30T06:00:48.689Z,5.43
2022-09-30T06:03:16.764Z,5.55
2022-09-30T06:05:45.314Z,5.38
2022-09-30T06:08:12.936Z,5.28
2022-09-30T06:10:43.901Z,5.70
2022-09-30T06:13:10.813Z,7.65
2022-09-30T06:15:39.665Z,5.72
2022-09-30T06:18:07.051Z,5.35
2022-09-30T06:20:33.777Z,5.55
2022-09-30T06:23:00.768Z,5.53
2022-09-30T06:25:28.901Z,6.20
2022-09-30T06:27:55.988Z,5.90
2022-09-30T06:30:22.797Z,6.30
2022-09-30T06:32:49.416Z,5.80
2022-09-30T06:35:16.788Z,6.05
2022-09-30T06:37:44.756Z,5.40
2022-09-30T06:40:11.504Z,6.00
2022-09-30T06:42:38.298Z,5.38
2022-09-30T06:45:05.519Z,6.00
2022-09-30T06:47:33.414Z,5.65
2022-09-30T06:50:00.221Z,6.20
2022-09-30T06:52:27.211Z,5.13
2022-09-30T06:54:56.731Z,5.68
2022-09-30T06:57:26.747Z,5.65
2022-09-30T06:59:54.464Z,6.10
2022-09-30T07:02:21.856Z,5.35
2022-09-30T07:04:48.442Z,6.25
2022-09-30T07:07:15.196Z,5.65
2022-09-30T07:09:43.217Z,5.93
2022-09-30T07:12:09.947Z,5.07
2022-09-30T07:14:36.986Z,5.93
2022-09-30T07:17:04.584Z,5.25
2022-09-30T07:19:34.151Z,5.78
2022-09-30T07:22:21.528Z,5.18
2022-09-30T07:24:48.269Z,5.63
2022-09-30T07:27:14.818Z,5.90
2022-09-30T07:30:07.085Z,6.30
2022-09-30T07:32:28.299Z,6.07
2022-09-30T07:34:54.897Z,6.28
2022-09-30T07:37:21.642Z,5.60
2022-09-30T07:39:48.869Z,6.35
2022-09-30T07:42:21.652Z,5.75
2022-09-30T07:44:52.122Z,6.32
2022-09-30T07:47:19.994Z,6.28
2022-09-30T07:49:46.839Z,6.35
2022-09-30T07:52:13.429Z,6.47
2022-09-30T07:54:45.321Z,6.35
2022-09-30T07:57:14.749Z,6.40
2022-09-30T07:59:42.023Z,6.40
2022-09-30T08:02:15.562Z,6.57
2022-09-30T08:04:44.197Z,6.05
2022-09-30T08:07:12.957Z,5.45
2022-09-30T08:09:39.597Z,5.55
2022-09-30T08:12:06.247Z,5.63
2022-09-30T08:14:33.212Z,5.97
2022-09-30T08:17:00.638Z,6.10
2022-09-30T08:19:29.442Z,5.38
2022-09-30T08:21:57.128Z,5.80
2022-09-30T08:24:25.165Z,5.53
2022-09-30T08:26:52.718Z,6.43
2022-09-30T08:29:35.746Z,6.50
2022-09-30T08:32:06.863Z,6.25
2022-09-30T08:34:35.663Z,5.88
2022-09-30T08:37:07.855Z,5.88
2022-09-30T08:39:39.393Z,5.68
2022-09-30T08:42:32.783Z,6.60
2022-09-30T08:45:43.536Z,5.25
2022-09-30T08:48:37.537Z,5.97
2022-09-30T08:51:33.323Z,5.55
2022-09-30T08:54:05.468Z,4.82
2022-09-30T08:56:33.908Z,5.57
2022-09-30T08:59:40.713Z,5.32
2022-09-30T09:02:27.651Z,5.95
2022-09-30T09:04:59.297Z,5.88
2022-09-30T09:07:37.607Z,5.80
2022-09-30T09:10:15.703Z,5.75
2022-09-30T09:13:06.292Z,5.80
2022-09-30T09:15:50.832Z,6.18
2022-09-30T09:18:26.286Z,5.70
2022-09-30T09:20:58.286Z,5.30
2022-09-30T09:23:26.104Z,5.55
2022-09-30T09:25:56.010Z,5.72
2022-09-30T09:28:41.857Z,5.28
2022-09-30T09:31:17.202Z,5.93
2022-09-30T09:33:44.093Z,6.88
2022-09-30T09:36:33.076Z,4.90
2022-09-30T09:39:27.404Z,5.85
2022-09-30T09:42:07.493Z,5.30
2022-09-30T09:44:57.282Z,5.85
2022-09-30T09:47:23.858Z,4.85
2022-09-30T09:49:57.701Z,4.95
2022-09-30T09:52:44.451Z,3.97
2022-09-30T09:55:13.116Z,4.78
2022-09-30T09:57:40.276Z,4.30
2022-09-30T10:00:29.702Z,4.13
2022-09-30T10:03:01.853Z,5.13
2022-09-30T10:05:30.214Z,5.20
2022-09-30T10:08:16.953Z,4.25
2022-09-30T10:10:49.753Z,4.35
2022-09-30T10:13:24.872Z,5.03
2022-09-30T10:15:56.990Z,4.03
2022-09-30T10:18:32.233Z,4.20
2022-09-30T10:21:02.503Z,3.50
2022-09-30T10:23:36.918Z,4.90
2022-09-30T10:26:15.344Z,4.10
2022-09-30T10:28:51.777Z,4.38
2022-09-30T10:31:31.803Z,5.05
2022-09-30T10:34:31.570Z,5.55
2022-09-30T10:37:01.950Z,5.55
2022-09-30T10:39:37.596Z,5.20
2022-09-30T10:42:11.526Z,5.38
2022-09-30T10:44:44.478Z,4.90
2022-09-30T10:47:16.885Z,5.43
2022-09-30T10:49:51.328Z,5.40
2022-09-30T10:52:24.253Z,4.65
2022-09-30T10:54:53.964Z,5.40
2022-09-30T10:57:25.388Z,5.40
2022-09-30T10:59:58.926Z,5.60
2022-09-30T11:02:54.045Z,5.80
2022-09-30T11:05:31.427Z,6.03
2022-09-30T11:08:04.685Z,5.55
2022-09-30T11:10:40.132Z,6.22
2022-09-30T11:13:18.272Z,5.40
2022-09-30T11:16:03.251Z,5.35
2022-09-30T11:18:47.674Z,4.72
2022-09-30T11:21:25.889Z,5.60
2022-09-30T11:24:13.986Z,5.03
2022-09-30T11:26:58.632Z,4.85
2022-09-30T11:29:43.825Z,4.45
2022-09-30T11:32:28.161Z,4.35
2022-09-30T11:35:18.950Z,5.10
2022-09-30T11:38:07.314Z,3.90
2022-09-30T11:41:01.472Z,4.00
2022-09-30T11:44:05.648Z,4.53
2022-09-30T11:46:59.434Z,4.43
2022-09-30T11:49:53.972Z,4.18
2022-09-30T11:52:42.644Z,3.83
2022-09-30T11:55:27.963Z,3.38
2022-09-30T11:58:40.953Z,3.70
2022-09-30T12:01:16.268Z,3.42
2022-09-30T12:03:49.092Z,3.10
2022-09-30T12:06:28.805Z,3.60
2022-09-30T12:09:02.705Z,4.25
2022-09-30T12:11:47.235Z,4.80
2022-09-30T12:14:26.396Z,4.07
2022-09-30T12:16:56.728Z,3.63
2022-09-30T12:19:43.922Z,2.78
2022-09-30T12:22:28.524Z,3.20
2022-09-30T12:24:55.120Z,2.60
2022-09-30T12:27:27.770Z,2.97
2022-09-30T12:30:20.665Z,2.70
2022-09-30T12:33:17.930Z,2.67
2022-09-30T12:36:05.429Z,2.72
2022-09-30T12:39:10.564Z,3.33
2022-09-30T12:42:03.969Z,2.90
2022-09-30T12:45:16.939Z,2.22
2022-09-30T12:47:54.753Z,2.17
2022-09-30T12:50:25.871Z,3.08
2022-09-30T12:52:52.626Z,4.07
2022-09-30T12:55:29.111Z,3.13
2022-09-30T12:57:56.895Z,3.40
2022-09-30T13:00:26.602Z,3.63
2022-09-30T13:03:17.734Z,3.53
2022-09-30T13:05:51.856Z,2.67
2022-09-30T13:08:22.768Z,2.53
2022-09-30T13:10:59.849Z,1.95
2022-09-30T13:13:33.764Z,1.92
2022-09-30T13:16:06.488Z,1.70
2022-09-30T13:18:33.143Z,2.30
2022-09-30T13:21:06.652Z,2.47
2022-09-30T13:23:53.716Z,2.22
2022-09-30T13:26:32.662Z,2.20
2022-09-30T13:29:02.642Z,2.10
2022-09-30T13:31:52.995Z,2.08
2022-09-30T13:34:22.255Z,1.73
2022-09-30T13:36:51.749Z,2.10
2022-09-30T13:39:18.181Z,2.03
2022-09-30T13:41:50.394Z,1.65
2022-09-30T13:44:22.876Z,1.40
2022-09-30T13:46:54.540Z,1.40
2022-09-30T13:49:46.744Z,1.33
2022-09-30T13:52:22.962Z,1.13
2022-09-30T13:54:52.259Z,1.08
2022-09-30T13:57:26.142Z,0.57
2022-09-30T14:00:20.161Z,0.95
2022-09-30T14:03:06.221Z,0.80
2022-09-30T14:05:42.017Z,1.13
2022-09-30T14:08:31.201Z,0.88
2022-09-30T14:11:06.637Z,0.80
2022-09-30T14:14:08.246Z,0.70
2022-09-30T14:17:11.122Z,0.70
2022-09-30T14:19:58.302Z,0.60
2022-09-30T14:22:30.162Z,0.90
2022-09-30T14:24:57.800Z,0.75
2022-09-30T14:27:35.777Z,0.90
2022-09-30T14:30:11.244Z,0.88
2022-09-30T14:32:52.996Z,0.80
2022-09-30T14:35:19.545Z,0.70
2022-09-30T14:37:51.147Z,0.88
2022-09-30T14:40:27.618Z,0.80
2022-09-30T14:42:59.831Z,0.68
2022-09-30T14:45:33.001Z,0.70
2022-09-30T14:48:07.990Z,1.02
2022-09-30T14:50:51.296Z,1.10
2022-09-30T14:53:30.337Z,0.80
2022-09-30T14:55:58.071Z,0.82
2022-09-30T14:58:29.234Z,0.65
2022-09-30T15:01:03.663Z,0.77
2022-09-30T15:03:32.820Z,0.98
2022-09-30T15:05:59.651Z,0.70
2022-09-30T15:08:26.693Z,1.00
2022-09-30T15:10:55.873Z,0.88
2022-09-30T15:13:25.280Z,0.90
2022-09-30T15:15:51.882Z,0.80
2022-09-30T15:18:25.178Z,0.80
2022-09-30T15:20:57.358Z,1.10
2022-09-30T15:23:31.154Z,1.20
2022-09-30T15:25:59.009Z,0.98
2022-09-30T15:28:26.110Z,1.30
2022-09-30T15:30:56.855Z,1.15
2022-09-30T15:33:27.641Z,0.80
2022-09-30T15:36:03.341Z,0.90
2022-09-30T15:38:31.779Z,1.17
2022-09-30T15:41:10.003Z,1.00
2022-09-30T15:43:39.737Z,0.95
2022-09-30T15:46:31.071Z,0.80
2022-09-30T15:49:04.082Z,1.00
2022-09-30T15:51:43.433Z,1.02
2022-09-30T15:54:16.082Z,1.20
2022-09-30T15:56:43.526Z,1.17
2022-09-30T15:59:14.733Z,0.77
2022-09-30T16:01:49.944Z,1.20
2022-09-30T16:04:16.583Z,1.00
2022-09-30T16:06:52.931Z,1.00
2022-09-30T16:09:35.369Z,1.00
2022-09-30T16:12:14.075Z,0.90
2022-09-30T16:14:48.830Z,0.90
2022-09-30T16:17:19.507Z,1.00
2022-09-30T16:19:57.996Z,0.70
2022-09-30T16:22:54.897Z,1.02
2022-09-30T16:25:30.594Z,1.10
2022-09-30T16:28:13.565Z,1.27
2022-09-30T16:30:48.640Z,1.27
2022-09-30T16:33:16.845Z,1.40
2022-09-30T16:35:44.640Z,1.55
2022-09-30T16:38:15.003Z,1.25
2022-09-30T16:40:41.801Z,1.20
2022-09-30T16:43:11.717Z,1.20
2022-09-30T16:45:39.976Z,1.35
2022-09-30T16:48:15.311Z,1.20
2022-09-30T16:50:45.405Z,0.85
2022-09-30T16:53:11.901Z,1.40
2022-09-30T16:55:38.561Z,1.38
2022-09-30T16:58:05.535Z,1.30
2022-09-30T17:00:32.714Z,1.90
2022-09-30T17:02:59.456Z,2.00
2022-09-30T17:05:27.596Z,1.70
2022-09-30T17:07:59.247Z,1.20
2022-09-30T17:10:29.166Z,1.70
2022-09-30T17:12:58.694Z,1.55
2022-09-30T17:15:25.199Z,2.20
2022-09-30T17:17:53.028Z,3.30
2022-09-30T17:20:20.672Z,2.72
2022-09-30T17:22:47.411Z,2.72
2022-09-30T17:25:17.480Z,3.15
2022-09-30T17:27:48.994Z,2.42
2022-09-30T17:30:16.102Z,2.78
2022-09-30T17:32:42.704Z,2.53
2022-09-30T17:35:09.431Z,2.42
2022-09-30T17:37:38.530Z,7.40
2022-09-30T17:40:26.460Z,20.50
2022-09-30T17:43:08.577Z,7.95
2022-09-30T17:45:35.793Z,5.35
2022-09-30T17:48:02.619Z,4.88
2022-09-30T17:50:29.317Z,4.65
2022-09-30T17:52:56.310Z,3.35
2022-09-30T17:55:22.813Z,3.60
2022-09-30T17:57:50.748Z,2.70
2022-09-30T18:00:17.413Z,3.10
2022-09-30T18:02:44.734Z,2.88
2022-09-30T18:05:11.780Z,2.65
2022-09-30T18:07:38.716Z,2.42
2022-09-30T18:10:05.918Z,2.70
2022-09-30T18:12:34.395Z,3.60
2022-09-30T18:15:01.081Z,4.35
2022-09-30T18:17:28.218Z,5.38
2022-09-30T18:19:54.761Z,5.32
2022-09-30T18:22:21.271Z,6.20
2022-09-30T18:25:10.850Z,6.25
2022-09-30T18:27:37.459Z,5.35
2022-09-30T18:30:05.892Z,5.35
2022-09-30T18:32:32.868Z,4.60
2022-09-30T18:34:59.427Z,4.63
2022-09-30T18:37:28.827Z,4.97
2022-09-30T18:39:55.431Z,4.53
2022-09-30T18:42:21.924Z,4.95
2022-09-30T18:44:48.848Z,5.18
2022-09-30T18:47:17.455Z,5.40
2022-09-30T18:49:44.351Z,5.15
2022-09-30T18:52:10.935Z,4.57
2022-09-30T18:54:37.595Z,4.43
2022-09-30T18:57:04.582Z,4.50
2022-09-30T18:59:31.301Z,4.32
2022-09-30T19:01:59.619Z,4.13
2022-09-30T19:04:26.319Z,4.03
2022-09-30T19:06:52.927Z,3.95
2022-09-30T19:09:19.867Z,4.10
2022-09-30T19:11:47.940Z,4.72
2022-09-30T19:14:15.507Z,5.32
2022-09-30T19:16:43.485Z,4.88
2022-09-30T19:19:10.707Z,5.32
2022-09-30T19:21:40.436Z,4.88
2022-09-30T19:24:09.106Z,5.10
2022-09-30T19:26:37.633Z,5.63
2022-09-30T19:29:05.885Z,5.38
2022-09-30T19:31:33.972Z,4.07
2022-09-30T19:34:01.980Z,3.90
2022-09-30T19:36:31.497Z,4.20
2022-09-30T19:39:11.393Z,3.70
2022-09-30T19:41:38.888Z,3.40
2022-09-30T19:44:05.486Z,3.15
2022-09-30T19:46:32.128Z,3.25
2022-09-30T19:48:58.940Z,4.35
2022-09-30T19:51:28.092Z,4.30
2022-09-30T19:54:05.198Z,4.05
2022-09-30T19:56:33.887Z,3.90
2022-09-30T19:59:00.777Z,3.80
2022-09-30T20:01:28.741Z,3.60
2022-09-30T20:04:00.149Z,4.45
2022-09-30T20:06:28.255Z,3.30
2022-09-30T20:09:00.330Z,4.05
2022-09-30T20:11:29.710Z,4.00
2022-09-30T20:14:16.429Z,3.72
2022-09-30T20:16:43.935Z,3.30
2022-09-30T20:19:11.770Z,3.08
2022-09-30T20:21:38.714Z,4.32
2022-09-30T20:24:05.742Z,3.38
2022-09-30T20:26:34.260Z,3.28
2022-09-30T20:29:01.324Z,2.78
2022-09-30T20:31:28.726Z,2.90
2022-09-30T20:33:59.103Z,3.58
2022-09-30T20:36:27.036Z,3.30
2022-09-30T20:38:59.093Z,3.05
2022-09-30T20:41:31.075Z,4.78
2022-09-30T20:43:58.348Z,7.78
2022-09-30T20:46:26.552Z,6.80
2022-09-30T20:48:53.061Z,6.35
2022-09-30T20:51:20.448Z,7.07
2022-09-30T20:53:51.468Z,6.13
2022-09-30T20:56:20.825Z,5.32
2022-09-30T20:58:48.884Z,5.68
2022-09-30T21:01:20.891Z,5.38
2022-09-30T21:03:50.398Z,3.97
2022-09-30T21:06:20.570Z,4.80
2022-09-30T21:08:47.709Z,4.50
2022-09-30T21:11:14.738Z,4.88
2022-09-30T21:13:43.340Z,4.45
2022-09-30T21:16:12.038Z,3.83
2022-09-30T21:18:38.812Z,3.83
2022-09-30T21:21:05.802Z,3.28
2022-09-30T21:23:33.748Z,3.38
2022-09-30T21:26:08.724Z,3.50
2022-09-30T21:28:36.150Z,3.70
2022-09-30T21:31:10.567Z,3.47
2022-09-30T21:33:37.155Z,3.40
2022-09-30T21:36:06.338Z,2.92
2022-09-30T21:38:34.159Z,3.40
2022-09-30T21:41:04.787Z,3.10
2022-09-30T21:43:33.509Z,3.10
2022-09-30T21:46:02.155Z,3.45
2022-09-30T21:48:30.535Z,3.05
2022-09-30T21:50:57.490Z,3.40
2022-09-30T21:53:27.357Z,3.20
2022-09-30T21:55:58.745Z,3.67
2022-09-30T21:58:26.499Z,3.40
2022-09-30T22:00:56.987Z,3.40
2022-09-30T22:03:23.788Z,3.20
2022-09-30T22:05:52.296Z,3.10
2022-09-30T22:08:19.235Z,3.03
2022-09-30T22:10:45.837Z,3.08
2022-09-30T22:13:12.821Z,3.40
2022-09-30T22:15:39.450Z,2.78
2022-09-30T22:18:10.375Z,3.53
2022-09-30T22:20:38.644Z,3.00
2022-09-30T22:23:05.215Z,3.58
2022-09-30T22:25:32.583Z,3.17
2022-09-30T22:27:59.383Z,3.40
2022-09-30T22:30:28.829Z,3.30
2022-09-30T22:33:14.048Z,3.03
2022-09-30T22:35:59.567Z,2.70
2022-09-30T22:38:26.200Z,2.75
2022-09-30T22:40:55.769Z,3.13
2022-09-30T22:43:24.461Z,2.75
2022-09-30T22:46:05.461Z,3.45
2022-09-30T22:48:32.435Z,3.80
2022-09-30T22:50:59.644Z,2.85
2022-09-30T22:53:27.468Z,3.45
2022-09-30T22:55:54.813Z,3.17
2022-09-30T22:58:26.218Z,2.92
2022-09-30T23:00:57.561Z,2.60
2022-09-30T23:03:28.063Z,3.47
2022-09-30T23:06:02.183Z,3.08
2022-09-30T23:08:31.282Z,3.55
2022-09-30T23:10:57.823Z,3.17
2022-09-30T23:13:24.400Z,3.17
2022-09-30T23:15:57.945Z,3.65
2022-09-30T23:18:24.445Z,3.00
2022-09-30T23:20:57.923Z,3.50
2022-09-30T23:23:24.673Z,3.10
2022-09-30T23:26:25.107Z,3.10
2022-09-30T23:28:56.525Z,2.83
2022-09-30T23:31:23.550Z,3.30
2022-09-30T23:33:55.775Z,2.85
2022-09-30T23:36:26.917Z,3.30
2022-09-30T23:38:53.758Z,2.80
2022-09-30T23:41:21.354Z,2.83
2022-09-30T23:43:48.691Z,2.70
2022-09-30T23:46:17.043Z,2.90
2022-09-30T23:48:46.974Z,3.17
2022-09-30T23:51:14.058Z,3.05
2022-09-30T23:53:42.385Z,3.00
2022-09-30T23:56:16.967Z,3.10
2022-09-30T23:58:44.689Z,3.33
